METAR Analyzer

一覧表示

Hello, Guest. (Login)

EDDF/FRA  -  フランクフルト

観測日時
2021-11-28 20:50 (UTC) (30分前)
気温
1
露点
0
湿数
1
相対湿度
93%
QNH
999hPa
推定現地気圧
985.9hPa
推定海面気圧
999.6hPa
体感温度
-10
(無風時)
4.8
HI
-0.4
気温前日比
-1
体感温度前日比
-1.3
HI前日比
-1.1
水平視程
>10000m
鉛直視程
データなし
雲底高度
No dense clouds
V/I
VMC (VFR)
RVR
No RVR data
卓越風
5kt from 280°
ガスト
No gust
降水
報告なし
その他の天気
報告なし
少しの雲 @ 900ft AGL

EDDF 282050Z 28005KT 9999 FEW009 01/00 Q0999 NOSIG

EDDM/MUC  -  ミュンヘン

観測日時
2021-11-28 20:50 (UTC) (30分前)
気温
1
露点
-1
湿数
2
相対湿度
86.5%
QNH
997hPa
推定現地気圧
944.4hPa
推定海面気圧
999.0hPa
体感温度
-4.3
(無風時)
5
HI
-0.6
気温前日比
+1
体感温度前日比
+1.6
HI前日比
+0.9
水平視程
>10000m
鉛直視程
データなし
雲底高度
No dense clouds
V/I
VMC (VFR)
RVR
No RVR data
卓越風
2kt from 280°
ガスト
No gust
降水
弱い雪
その他の天気
報告なし
散在する雲 @ 3000ft AGL

EDDM 282050Z 28002KT 9999 -SN SCT030 01/M01 Q0997 NOSIG

EDDL/DUS  -  デュッセルドルフ

観測日時
2021-11-28 20:50 (UTC) (30分前)
気温
2
露点
1
湿数
1
相対湿度
93.1%
QNH
1001hPa
推定現地気圧
995.7hPa
推定海面気圧
1001.3hPa
体感温度
-8.7
(無風時)
5.7
HI
0.7
気温前日比
-1
体感温度前日比
-0.3
HI前日比
-0.8
水平視程
データなし
鉛直視程
データなし
雲底高度
Unknown
V/I
判定不可
RVR (R23R)
>2000m ()
RVR (R23L)
>2000m ()
卓越風
5kt from 300°
ガスト
No gust
降水
報告なし
その他の天気
//
 雲 @ 不明な高さ

EDDL 282050Z AUTO 30005KT //// R23R/P2000N R23L/P2000N // ///////// 02/01 Q1001 NOSIG

LFPG/CDG  -  パリ=シャルル・ド・ゴール

観測日時
2021-11-28 21:00 (UTC) (20分前)
気温
1
露点
0
湿数
1
相対湿度
93%
QNH
1005hPa
推定現地気圧
990.9hPa
推定海面気圧
1005.7hPa
体感温度
-12
(無風時)
4.8
HI
-0.4
気温前日比
-2
体感温度前日比
-1.2
HI前日比
-2.2
水平視程
>10000m
鉛直視程
データなし
雲底高度
No dense clouds
V/I
VMC (VFR)
RVR
No RVR data
卓越風
7kt from 310°
ガスト
No gust
降水
報告なし
その他の天気
報告なし
少しの雲 @ 4000ft AGL / 散在する雲 @ 11000ft AGL

LFPG 282100Z 31007KT 9999 FEW040 SCT110 01/M00 Q1005 NOSIG

EGLL/LHR  -  ロンドン・ヒースロー

観測日時
2021-11-28 20:50 (UTC) (30分前)
気温
1
露点
-1
湿数
2
相対湿度
86.5%
QNH
1009hPa
推定現地気圧
1006.0hPa
推定海面気圧
1009.1hPa
体感温度
-1.3
(無風時)
5
HI
-0.6
気温前日比
-2
体感温度前日比
+9.5
HI前日比
-1.6
水平視程
>10000m
鉛直視程
データなし
雲底高度
No dense clouds
V/I
VMC (VFR)
RVR
No RVR data
卓越風
1kt from 330°
ガスト
No gust
降水
報告なし
その他の天気
報告なし
目立った雲なし

EGLL 282050Z AUTO 33001KT 9999 NCD 01/M01 Q1009 NOSIG

371.9msec